sensor_id;sensor_type;location;lat;lon;timestamp;P1;durP1;ratioP1;P2;durP2;ratioP2
19776;SDS011;10047;42.490;26.012;2023-02-03T00:00:11;29.10;;;19.58;;
19776;SDS011;10047;42.490;26.012;2023-02-03T00:02:37;17.63;;;11.38;;
19776;SDS011;10047;42.490;26.012;2023-02-03T00:05:03;18.77;;;12.95;;
19776;SDS011;10047;42.490;26.012;2023-02-03T00:07:28;15.35;;;11.10;;
19776;SDS011;10047;42.490;26.012;2023-02-03T00:09:54;17.80;;;11.88;;
19776;SDS011;10047;42.490;26.012;2023-02-03T00:12:21;15.60;;;11.00;;
19776;SDS011;10047;42.490;26.012;2023-02-03T00:14:47;17.90;;;12.27;;
19776;SDS011;10047;42.490;26.012;2023-02-03T00:17:12;18.15;;;12.93;;
19776;SDS011;10047;42.490;26.012;2023-02-03T00:19:39;16.20;;;11.10;;
19776;SDS011;10047;42.490;26.012;2023-02-03T00:22:04;13.45;;;9.63;;
19776;SDS011;10047;42.490;26.012;2023-02-03T00:24:30;8.88;;;6.72;;
19776;SDS011;10047;42.490;26.012;2023-02-03T00:26:55;8.60;;;6.40;;
19776;SDS011;10047;42.490;26.012;2023-02-03T00:29:21;13.13;;;7.57;;
19776;SDS011;10047;42.490;26.012;2023-02-03T00:31:49;10.10;;;5.82;;
19776;SDS011;10047;42.490;26.012;2023-02-03T00:34:15;11.35;;;6.50;;
19776;SDS011;10047;42.490;26.012;2023-02-03T00:40:03;8.67;;;5.23;;
19776;SDS011;10047;42.490;26.012;2023-02-03T00:42:28;8.02;;;5.43;;
19776;SDS011;10047;42.490;26.012;2023-02-03T00:44:54;10.20;;;6.80;;
19776;SDS011;10047;42.490;26.012;2023-02-03T00:50:41;11.30;;;7.70;;
19776;SDS011;10047;42.490;26.012;2023-02-03T00:53:06;9.40;;;6.32;;
19776;SDS011;10047;42.490;26.012;2023-02-03T00:55:32;7.93;;;5.75;;
19776;SDS011;10047;42.490;26.012;2023-02-03T00:57:57;9.20;;;4.45;;
19776;SDS011;10047;42.490;26.012;2023-02-03T01:00:22;7.78;;;4.82;;
19776;SDS011;10047;42.490;26.012;2023-02-03T01:02:48;5.82;;;2.67;;
19776;SDS011;10047;42.490;26.012;2023-02-03T01:05:13;3.55;;;1.77;;
19776;SDS011;10047;42.490;26.012;2023-02-03T01:07:39;3.30;;;2.03;;
19776;SDS011;10047;42.490;26.012;2023-02-03T01:10:04;3.60;;;1.95;;
19776;SDS011;10047;42.490;26.012;2023-02-03T01:12:30;4.13;;;2.60;;
19776;SDS011;10047;42.490;26.012;2023-02-03T01:18:17;3.80;;;1.52;;
19776;SDS011;10047;42.490;26.012;2023-02-03T01:20:45;2.75;;;1.25;;
19776;SDS011;10047;42.490;26.012;2023-02-03T01:23:10;2.22;;;1.42;;
19776;SDS011;10047;42.490;26.012;2023-02-03T01:28:58;3.72;;;1.35;;
19776;SDS011;10047;42.490;26.012;2023-02-03T01:31:25;2.90;;;1.17;;
19776;SDS011;10047;42.490;26.012;2023-02-03T01:33:53;3.03;;;0.90;;
19776;SDS011;10047;42.490;26.012;2023-02-03T01:36:19;3.30;;;1.13;;
19776;SDS011;10047;42.490;26.012;2023-02-03T01:38:46;2.47;;;1.10;;
19776;SDS011;10047;42.490;26.012;2023-02-03T01:41:16;2.75;;;1.27;;
19776;SDS011;10047;42.490;26.012;2023-02-03T01:47:51;4.10;;;1.33;;
19776;SDS011;10047;42.490;26.012;2023-02-03T01:53:23;4.15;;;1.15;;
19776;SDS011;10047;42.490;26.012;2023-02-03T01:55:49;2.45;;;1.10;;
19776;SDS011;10047;42.490;26.012;2023-02-03T01:58:22;3.20;;;1.27;;
19776;SDS011;10047;42.490;26.012;2023-02-03T02:00:51;2.83;;;1.15;;
19776;SDS011;10047;42.490;26.012;2023-02-03T02:03:20;3.60;;;1.20;;
19776;SDS011;10047;42.490;26.012;2023-02-03T02:06:03;3.47;;;1.20;;
19776;SDS011;10047;42.490;26.012;2023-02-03T02:08:31;2.97;;;1.15;;
19776;SDS011;10047;42.490;26.012;2023-02-03T02:11:00;2.58;;;0.82;;
19776;SDS011;10047;42.490;26.012;2023-02-03T02:44:18;4.80;;;1.38;;
19776;SDS011;10047;42.490;26.012;2023-02-03T02:46:56;2.47;;;1.48;;
19776;SDS011;10047;42.490;26.012;2023-02-03T02:52:47;2.67;;;1.90;;
19776;SDS011;10047;42.490;26.012;2023-02-03T02:55:19;4.80;;;2.20;;
19776;SDS011;10047;42.490;26.012;2023-02-03T02:57:48;5.15;;;1.60;;
19776;SDS011;10047;42.490;26.012;2023-02-03T03:00:17;2.60;;;1.60;;
19776;SDS011;10047;42.490;26.012;2023-02-03T03:02:44;3.67;;;1.83;;
19776;SDS011;10047;42.490;26.012;2023-02-03T03:05:09;4.88;;;2.20;;
19776;SDS011;10047;42.490;26.012;2023-02-03T03:10:57;2.78;;;1.30;;
19776;SDS011;10047;42.490;26.012;2023-02-03T03:16:49;1.87;;;1.03;;
19776;SDS011;10047;42.490;26.012;2023-02-03T03:19:24;3.97;;;1.40;;
19776;SDS011;10047;42.490;26.012;2023-02-03T03:21:53;3.45;;;1.58;;
19776;SDS011;10047;42.490;26.012;2023-02-03T03:24:23;3.88;;;1.70;;
19776;SDS011;10047;42.490;26.012;2023-02-03T03:29:30;3.50;;;1.20;;
19776;SDS011;10047;42.490;26.012;2023-02-03T03:32:01;3.03;;;1.60;;
19776;SDS011;10047;42.490;26.012;2023-02-03T03:37:55;4.80;;;1.40;;
19776;SDS011;10047;42.490;26.012;2023-02-03T03:40:32;3.08;;;1.42;;
19776;SDS011;10047;42.490;26.012;2023-02-03T03:43:16;2.70;;;1.33;;
19776;SDS011;10047;42.490;26.012;2023-02-03T03:48:50;4.28;;;1.50;;
19776;SDS011;10047;42.490;26.012;2023-02-03T03:51:25;5.07;;;1.90;;
19776;SDS011;10047;42.490;26.012;2023-02-03T03:53:56;2.95;;;1.48;;
19776;SDS011;10047;42.490;26.012;2023-02-03T03:56:29;3.20;;;1.73;;
19776;SDS011;10047;42.490;26.012;2023-02-03T04:02:22;4.10;;;1.40;;
19776;SDS011;10047;42.490;26.012;2023-02-03T04:04:48;3.28;;;1.50;;
19776;SDS011;10047;42.490;26.012;2023-02-03T04:07:14;3.58;;;1.50;;
19776;SDS011;10047;42.490;26.012;2023-02-03T04:09:40;4.50;;;1.40;;
19776;SDS011;10047;42.490;26.012;2023-02-03T04:12:28;3.53;;;1.48;;
19776;SDS011;10047;42.490;26.012;2023-02-03T04:14:52;3.75;;;1.77;;
19776;SDS011;10047;42.490;26.012;2023-02-03T04:17:17;3.20;;;1.83;;
19776;SDS011;10047;42.490;26.012;2023-02-03T04:19:44;4.95;;;2.33;;
19776;SDS011;10047;42.490;26.012;2023-02-03T04:22:10;4.10;;;1.83;;
19776;SDS011;10047;42.490;26.012;2023-02-03T04:27:57;3.13;;;1.77;;
19776;SDS011;10047;42.490;26.012;2023-02-03T04:30:23;3.33;;;1.80;;
19776;SDS011;10047;42.490;26.012;2023-02-03T04:32:49;3.92;;;2.28;;
19776;SDS011;10047;42.490;26.012;2023-02-03T04:35:14;8.13;;;2.20;;
19776;SDS011;10047;42.490;26.012;2023-02-03T04:37:40;4.53;;;2.45;;
19776;SDS011;10047;42.490;26.012;2023-02-03T04:40:06;6.35;;;2.50;;
19776;SDS011;10047;42.490;26.012;2023-02-03T04:42:33;6.07;;;2.30;;
19776;SDS011;10047;42.490;26.012;2023-02-03T04:45:01;4.03;;;2.40;;
19776;SDS011;10047;42.490;26.012;2023-02-03T04:47:26;6.00;;;2.30;;
19776;SDS011;10047;42.490;26.012;2023-02-03T04:53:13;5.60;;;2.47;;
19776;SDS011;10047;42.490;26.012;2023-02-03T04:55:39;6.07;;;2.45;;
19776;SDS011;10047;42.490;26.012;2023-02-03T04:58:04;5.60;;;2.45;;
19776;SDS011;10047;42.490;26.012;2023-02-03T05:00:29;4.72;;;2.30;;
19776;SDS011;10047;42.490;26.012;2023-02-03T05:02:55;3.78;;;2.30;;
19776;SDS011;10047;42.490;26.012;2023-02-03T05:05:20;4.88;;;2.80;;
19776;SDS011;10047;42.490;26.012;2023-02-03T05:07:46;4.13;;;2.35;;
19776;SDS011;10047;42.490;26.012;2023-02-03T05:13:33;3.85;;;1.45;;
19776;SDS011;10047;42.490;26.012;2023-02-03T05:15:58;6.25;;;2.40;;
19776;SDS011;10047;42.490;26.012;2023-02-03T05:18:24;4.35;;;2.33;;
19776;SDS011;10047;42.490;26.012;2023-02-03T05:20:49;4.50;;;3.00;;
19776;SDS011;10047;42.490;26.012;2023-02-03T05:26:36;6.10;;;4.00;;
19776;SDS011;10047;42.490;26.012;2023-02-03T05:29:02;6.68;;;3.30;;
19776;SDS011;10047;42.490;26.012;2023-02-03T05:31:27;5.57;;;3.63;;
19776;SDS011;10047;42.490;26.012;2023-02-03T05:33:54;8.95;;;3.90;;
19776;SDS011;10047;42.490;26.012;2023-02-03T05:36:19;6.50;;;4.28;;
19776;SDS011;10047;42.490;26.012;2023-02-03T05:38:44;9.50;;;4.53;;
19776;SDS011;10047;42.490;26.012;2023-02-03T05:41:10;21.50;;;10.73;;
19776;SDS011;10047;42.490;26.012;2023-02-03T05:43:55;12.60;;;5.80;;
19776;SDS011;10047;42.490;26.012;2023-02-03T05:46:20;9.77;;;6.40;;
19776;SDS011;10047;42.490;26.012;2023-02-03T05:48:46;10.25;;;5.90;;
19776;SDS011;10047;42.490;26.012;2023-02-03T05:51:11;13.13;;;6.20;;
19776;SDS011;10047;42.490;26.012;2023-02-03T05:53:36;14.52;;;8.82;;
19776;SDS011;10047;42.490;26.012;2023-02-03T05:56:02;19.00;;;11.82;;
19776;SDS011;10047;42.490;26.012;2023-02-03T05:58:27;14.63;;;8.93;;
19776;SDS011;10047;42.490;26.012;2023-02-03T06:00:53;9.85;;;6.53;;
19776;SDS011;10047;42.490;26.012;2023-02-03T06:06:40;9.43;;;5.67;;
19776;SDS011;10047;42.490;26.012;2023-02-03T06:09:06;18.95;;;11.15;;
19776;SDS011;10047;42.490;26.012;2023-02-03T06:11:32;16.58;;;10.80;;
19776;SDS011;10047;42.490;26.012;2023-02-03T06:13:59;16.02;;;8.90;;
19776;SDS011;10047;42.490;26.012;2023-02-03T06:16:26;13.20;;;8.07;;
19776;SDS011;10047;42.490;26.012;2023-02-03T06:18:53;8.63;;;6.47;;
19776;SDS011;10047;42.490;26.012;2023-02-03T06:21:22;23.10;;;11.55;;
19776;SDS011;10047;42.490;26.012;2023-02-03T06:23:47;11.68;;;7.50;;
19776;SDS011;10047;42.490;26.012;2023-02-03T06:26:13;13.65;;;8.57;;
19776;SDS011;10047;42.490;26.012;2023-02-03T06:28:38;21.23;;;9.93;;
19776;SDS011;10047;42.490;26.012;2023-02-03T06:31:04;12.80;;;8.13;;
19776;SDS011;10047;42.490;26.012;2023-02-03T06:33:30;24.08;;;11.00;;
19776;SDS011;10047;42.490;26.012;2023-02-03T06:35:56;20.65;;;11.27;;
19776;SDS011;10047;42.490;26.012;2023-02-03T06:38:22;17.90;;;10.32;;
19776;SDS011;10047;42.490;26.012;2023-02-03T06:40:48;26.35;;;17.27;;
19776;SDS011;10047;42.490;26.012;2023-02-03T06:43:13;22.52;;;15.20;;
19776;SDS011;10047;42.490;26.012;2023-02-03T06:45:39;25.77;;;18.83;;
19776;SDS011;10047;42.490;26.012;2023-02-03T06:48:05;18.92;;;13.88;;
19776;SDS011;10047;42.490;26.012;2023-02-03T06:50:31;20.60;;;14.20;;
19776;SDS011;10047;42.490;26.012;2023-02-03T06:52:57;21.23;;;15.52;;
19776;SDS011;10047;42.490;26.012;2023-02-03T06:55:22;22.27;;;16.63;;
19776;SDS011;10047;42.490;26.012;2023-02-03T06:57:48;29.63;;;17.55;;
19776;SDS011;10047;42.490;26.012;2023-02-03T07:00:14;23.75;;;17.35;;
19776;SDS011;10047;42.490;26.012;2023-02-03T07:02:41;21.27;;;13.68;;
19776;SDS011;10047;42.490;26.012;2023-02-03T07:05:07;15.10;;;10.75;;
19776;SDS011;10047;42.490;26.012;2023-02-03T07:07:33;7.05;;;5.13;;
19776;SDS011;10047;42.490;26.012;2023-02-03T07:10:01;7.68;;;4.78;;
19776;SDS011;10047;42.490;26.012;2023-02-03T07:12:27;10.68;;;6.68;;
19776;SDS011;10047;42.490;26.012;2023-02-03T07:14:52;8.13;;;5.47;;
19776;SDS011;10047;42.490;26.012;2023-02-03T07:17:18;6.63;;;4.70;;
19776;SDS011;10047;42.490;26.012;2023-02-03T07:19:43;12.35;;;6.13;;
19776;SDS011;10047;42.490;26.012;2023-02-03T07:22:09;10.80;;;6.22;;
19776;SDS011;10047;42.490;26.012;2023-02-03T07:24:35;11.48;;;6.88;;
19776;SDS011;10047;42.490;26.012;2023-02-03T07:27:00;7.85;;;5.10;;
19776;SDS011;10047;42.490;26.012;2023-02-03T07:29:26;10.30;;;5.82;;
19776;SDS011;10047;42.490;26.012;2023-02-03T07:31:52;7.43;;;5.32;;
19776;SDS011;10047;42.490;26.012;2023-02-03T07:34:17;9.07;;;5.50;;
19776;SDS011;10047;42.490;26.012;2023-02-03T07:36:43;8.98;;;4.93;;
19776;SDS011;10047;42.490;26.012;2023-02-03T07:39:08;11.13;;;6.07;;
19776;SDS011;10047;42.490;26.012;2023-02-03T07:41:33;7.88;;;5.38;;
19776;SDS011;10047;42.490;26.012;2023-02-03T07:43:59;9.52;;;6.95;;
19776;SDS011;10047;42.490;26.012;2023-02-03T07:46:24;8.43;;;6.47;;
19776;SDS011;10047;42.490;26.012;2023-02-03T07:48:50;10.60;;;6.30;;
19776;SDS011;10047;42.490;26.012;2023-02-03T07:51:15;9.55;;;5.45;;
19776;SDS011;10047;42.490;26.012;2023-02-03T07:53:40;8.25;;;5.80;;
19776;SDS011;10047;42.490;26.012;2023-02-03T07:56:06;7.50;;;4.80;;
19776;SDS011;10047;42.490;26.012;2023-02-03T07:58:31;11.85;;;6.50;;
19776;SDS011;10047;42.490;26.012;2023-02-03T08:00:57;11.77;;;7.28;;
19776;SDS011;10047;42.490;26.012;2023-02-03T08:03:23;7.82;;;4.65;;
19776;SDS011;10047;42.490;26.012;2023-02-03T08:05:48;6.78;;;4.60;;
19776;SDS011;10047;42.490;26.012;2023-02-03T08:08:14;8.98;;;4.82;;
19776;SDS011;10047;42.490;26.012;2023-02-03T08:10:40;5.47;;;3.75;;
19776;SDS011;10047;42.490;26.012;2023-02-03T08:13:05;7.70;;;4.18;;
19776;SDS011;10047;42.490;26.012;2023-02-03T08:15:31;5.38;;;3.83;;
19776;SDS011;10047;42.490;26.012;2023-02-03T08:17:56;5.65;;;3.53;;
19776;SDS011;10047;42.490;26.012;2023-02-03T08:20:21;7.72;;;4.25;;
19776;SDS011;10047;42.490;26.012;2023-02-03T08:22:47;8.75;;;5.28;;
19776;SDS011;10047;42.490;26.012;2023-02-03T08:25:12;11.52;;;6.25;;
19776;SDS011;10047;42.490;26.012;2023-02-03T08:27:38;11.43;;;6.95;;
19776;SDS011;10047;42.490;26.012;2023-02-03T08:30:04;13.77;;;9.82;;
19776;SDS011;10047;42.490;26.012;2023-02-03T08:32:31;15.45;;;12.13;;
19776;SDS011;10047;42.490;26.012;2023-02-03T08:34:57;9.18;;;6.60;;
19776;SDS011;10047;42.490;26.012;2023-02-03T08:37:23;7.78;;;5.97;;
19776;SDS011;10047;42.490;26.012;2023-02-03T08:39:49;8.50;;;5.93;;
19776;SDS011;10047;42.490;26.012;2023-02-03T08:42:15;7.25;;;4.65;;
19776;SDS011;10047;42.490;26.012;2023-02-03T08:44:41;6.68;;;4.20;;
19776;SDS011;10047;42.490;26.012;2023-02-03T08:47:08;8.10;;;5.20;;
19776;SDS011;10047;42.490;26.012;2023-02-03T08:49:34;9.15;;;5.38;;
19776;SDS011;10047;42.490;26.012;2023-02-03T08:52:03;7.35;;;4.03;;
19776;SDS011;10047;42.490;26.012;2023-02-03T08:54:30;5.57;;;4.30;;
19776;SDS011;10047;42.490;26.012;2023-02-03T08:56:56;6.53;;;4.47;;
19776;SDS011;10047;42.490;26.012;2023-02-03T08:59:21;7.72;;;4.90;;
19776;SDS011;10047;42.490;26.012;2023-02-03T09:01:47;26.23;;;18.52;;
19776;SDS011;10047;42.490;26.012;2023-02-03T09:04:12;10.57;;;7.03;;
19776;SDS011;10047;42.490;26.012;2023-02-03T09:06:39;10.38;;;5.50;;
19776;SDS011;10047;42.490;26.012;2023-02-03T09:09:05;4.97;;;3.80;;
19776;SDS011;10047;42.490;26.012;2023-02-03T09:11:30;6.95;;;3.38;;
19776;SDS011;10047;42.490;26.012;2023-02-03T09:13:56;7.53;;;5.13;;
19776;SDS011;10047;42.490;26.012;2023-02-03T09:16:22;6.40;;;4.47;;
19776;SDS011;10047;42.490;26.012;2023-02-03T09:18:49;8.88;;;5.05;;
19776;SDS011;10047;42.490;26.012;2023-02-03T09:21:15;4.97;;;3.58;;
19776;SDS011;10047;42.490;26.012;2023-02-03T09:23:41;6.43;;;4.10;;
19776;SDS011;10047;42.490;26.012;2023-02-03T09:26:08;5.97;;;4.18;;
19776;SDS011;10047;42.490;26.012;2023-02-03T09:28:35;10.75;;;5.18;;
19776;SDS011;10047;42.490;26.012;2023-02-03T09:31:02;6.82;;;4.70;;
19776;SDS011;10047;42.490;26.012;2023-02-03T09:33:29;4.45;;;3.53;;
19776;SDS011;10047;42.490;26.012;2023-02-03T09:35:55;8.85;;;5.40;;
19776;SDS011;10047;42.490;26.012;2023-02-03T09:38:21;11.10;;;5.57;;
19776;SDS011;10047;42.490;26.012;2023-02-03T09:40:48;7.65;;;4.07;;
19776;SDS011;10047;42.490;26.012;2023-02-03T09:46:04;8.52;;;3.80;;
19776;SDS011;10047;42.490;26.012;2023-02-03T09:57:24;8.32;;;5.35;;
19776;SDS011;10047;42.490;26.012;2023-02-03T09:59:51;8.05;;;4.57;;
19776;SDS011;10047;42.490;26.012;2023-02-03T10:02:25;5.25;;;4.10;;
19776;SDS011;10047;42.490;26.012;2023-02-03T10:15:58;6.45;;;4.20;;
19776;SDS011;10047;42.490;26.012;2023-02-03T10:18:27;5.55;;;4.18;;
19776;SDS011;10047;42.490;26.012;2023-02-03T10:21:01;5.38;;;3.28;;
19776;SDS011;10047;42.490;26.012;2023-02-03T10:23:35;8.88;;;5.95;;
19776;SDS011;10047;42.490;26.012;2023-02-03T10:26:05;7.00;;;5.30;;
19776;SDS011;10047;42.490;26.012;2023-02-03T10:28:37;9.85;;;5.65;;
19776;SDS011;10047;42.490;26.012;2023-02-03T10:31:19;7.32;;;5.28;;
19776;SDS011;10047;42.490;26.012;2023-02-03T10:33:47;3.67;;;2.67;;
19776;SDS011;10047;42.490;26.012;2023-02-03T10:36:20;7.00;;;4.22;;
19776;SDS011;10047;42.490;26.012;2023-02-03T10:41:27;5.55;;;3.00;;
19776;SDS011;10047;42.490;26.012;2023-02-03T10:43:54;7.88;;;4.00;;
19776;SDS011;10047;42.490;26.012;2023-02-03T10:48:51;8.48;;;4.60;;
19776;SDS011;10047;42.490;26.012;2023-02-03T10:51:19;5.88;;;3.72;;
19776;SDS011;10047;42.490;26.012;2023-02-03T10:53:47;6.35;;;4.30;;
19776;SDS011;10047;42.490;26.012;2023-02-03T10:56:16;4.90;;;3.63;;
19776;SDS011;10047;42.490;26.012;2023-02-03T10:58:47;7.50;;;4.30;;
19776;SDS011;10047;42.490;26.012;2023-02-03T11:01:27;5.38;;;2.88;;
19776;SDS011;10047;42.490;26.012;2023-02-03T11:04:03;6.78;;;3.90;;
19776;SDS011;10047;42.490;26.012;2023-02-03T11:06:30;7.13;;;4.38;;
19776;SDS011;10047;42.490;26.012;2023-02-03T11:08:57;8.15;;;4.18;;
19776;SDS011;10047;42.490;26.012;2023-02-03T11:11:27;5.40;;;3.40;;
19776;SDS011;10047;42.490;26.012;2023-02-03T11:16:27;5.05;;;3.80;;
19776;SDS011;10047;42.490;26.012;2023-02-03T11:19:04;3.70;;;3.17;;
19776;SDS011;10047;42.490;26.012;2023-02-03T11:24:55;3.60;;;2.40;;
19776;SDS011;10047;42.490;26.012;2023-02-03T11:27:23;5.22;;;3.72;;
19776;SDS011;10047;42.490;26.012;2023-02-03T11:29:54;8.48;;;5.70;;
19776;SDS011;10047;42.490;26.012;2023-02-03T11:35:58;7.93;;;5.03;;
19776;SDS011;10047;42.490;26.012;2023-02-03T11:38:31;6.07;;;3.40;;
19776;SDS011;10047;42.490;26.012;2023-02-03T11:41:02;5.50;;;3.75;;
19776;SDS011;10047;42.490;26.012;2023-02-03T11:43:28;5.70;;;2.78;;
19776;SDS011;10047;42.490;26.012;2023-02-03T11:45:58;4.85;;;3.17;;
19776;SDS011;10047;42.490;26.012;2023-02-03T11:48:37;4.65;;;3.00;;
19776;SDS011;10047;42.490;26.012;2023-02-03T12:07:12;4.95;;;3.63;;
19776;SDS011;10047;42.490;26.012;2023-02-03T12:12:38;4.72;;;3.15;;
19776;SDS011;10047;42.490;26.012;2023-02-03T12:21:16;4.93;;;3.77;;
19776;SDS011;10047;42.490;26.012;2023-02-03T12:29:41;8.02;;;4.35;;
19776;SDS011;10047;42.490;26.012;2023-02-03T12:32:14;5.40;;;3.72;;
19776;SDS011;10047;42.490;26.012;2023-02-03T12:37:38;4.35;;;2.80;;
19776;SDS011;10047;42.490;26.012;2023-02-03T12:40:11;5.78;;;4.45;;
19776;SDS011;10047;42.490;26.012;2023-02-03T12:42:45;6.90;;;4.03;;
19776;SDS011;10047;42.490;26.012;2023-02-03T12:51:10;6.20;;;3.75;;
19776;SDS011;10047;42.490;26.012;2023-02-03T12:53:40;3.53;;;2.90;;
19776;SDS011;10047;42.490;26.012;2023-02-03T12:56:15;6.00;;;3.20;;
19776;SDS011;10047;42.490;26.012;2023-02-03T12:58:55;7.63;;;3.13;;
19776;SDS011;10047;42.490;26.012;2023-02-03T13:01:33;5.80;;;3.47;;
19776;SDS011;10047;42.490;26.012;2023-02-03T13:10:02;5.28;;;3.17;;
19776;SDS011;10047;42.490;26.012;2023-02-03T13:12:30;7.22;;;3.45;;
19776;SDS011;10047;42.490;26.012;2023-02-03T13:15:21;7.00;;;3.67;;
19776;SDS011;10047;42.490;26.012;2023-02-03T13:20:22;4.20;;;3.20;;
19776;SDS011;10047;42.490;26.012;2023-02-03T13:22:50;4.00;;;3.08;;
19776;SDS011;10047;42.490;26.012;2023-02-03T13:25:19;4.90;;;4.40;;
19776;SDS011;10047;42.490;26.012;2023-02-03T13:43:01;9.40;;;6.38;;
19776;SDS011;10047;42.490;26.012;2023-02-03T13:45:31;9.02;;;5.97;;
19776;SDS011;10047;42.490;26.012;2023-02-03T13:48:43;7.40;;;5.17;;
19776;SDS011;10047;42.490;26.012;2023-02-03T13:51:01;8.57;;;3.65;;
19776;SDS011;10047;42.490;26.012;2023-02-03T13:53:38;5.85;;;3.25;;
19776;SDS011;10047;42.490;26.012;2023-02-03T13:56:06;9.10;;;5.00;;
19776;SDS011;10047;42.490;26.012;2023-02-03T13:58:39;9.20;;;4.65;;
19776;SDS011;10047;42.490;26.012;2023-02-03T14:10:08;9.13;;;3.72;;
19776;SDS011;10047;42.490;26.012;2023-02-03T14:15:22;3.58;;;2.80;;
19776;SDS011;10047;42.490;26.012;2023-02-03T14:22:50;5.18;;;3.60;;
19776;SDS011;10047;42.490;26.012;2023-02-03T14:25:19;7.32;;;4.03;;
19776;SDS011;10047;42.490;26.012;2023-02-03T14:27:46;9.68;;;5.68;;
19776;SDS011;10047;42.490;26.012;2023-02-03T14:30:22;7.30;;;4.68;;
19776;SDS011;10047;42.490;26.012;2023-02-03T14:32:49;9.35;;;5.93;;
19776;SDS011;10047;42.490;26.012;2023-02-03T14:35:17;7.80;;;5.63;;
19776;SDS011;10047;42.490;26.012;2023-02-03T14:37:52;9.48;;;7.30;;
19776;SDS011;10047;42.490;26.012;2023-02-03T14:58:33;8.02;;;5.90;;
19776;SDS011;10047;42.490;26.012;2023-02-03T15:04:27;11.57;;;6.43;;
19776;SDS011;10047;42.490;26.012;2023-02-03T15:06:52;8.77;;;6.75;;
19776;SDS011;10047;42.490;26.012;2023-02-03T15:09:23;7.53;;;4.70;;
19776;SDS011;10047;42.490;26.012;2023-02-03T15:12:14;14.20;;;7.10;;
19776;SDS011;10047;42.490;26.012;2023-02-03T15:14:41;17.00;;;8.50;;
19776;SDS011;10047;42.490;26.012;2023-02-03T15:17:26;19.27;;;9.32;;
19776;SDS011;10047;42.490;26.012;2023-02-03T15:23:24;6.10;;;4.17;;
19776;SDS011;10047;42.490;26.012;2023-02-03T15:25:54;9.88;;;6.32;;
19776;SDS011;10047;42.490;26.012;2023-02-03T15:28:26;15.05;;;8.25;;
19776;SDS011;10047;42.490;26.012;2023-02-03T15:31:12;9.32;;;6.53;;
19776;SDS011;10047;42.490;26.012;2023-02-03T15:33:44;12.30;;;7.13;;
19776;SDS011;10047;42.490;26.012;2023-02-03T15:39:37;24.10;;;13.23;;
19776;SDS011;10047;42.490;26.012;2023-02-03T15:44:51;16.60;;;9.23;;
19776;SDS011;10047;42.490;26.012;2023-02-03T15:47:28;15.13;;;9.13;;
19776;SDS011;10047;42.490;26.012;2023-02-03T15:50:06;18.33;;;12.55;;
19776;SDS011;10047;42.490;26.012;2023-02-03T15:52:45;16.88;;;9.57;;
19776;SDS011;10047;42.490;26.012;2023-02-03T15:58:39;18.60;;;12.43;;
19776;SDS011;10047;42.490;26.012;2023-02-03T16:01:11;18.77;;;10.82;;
19776;SDS011;10047;42.490;26.012;2023-02-03T16:03:42;8.93;;;6.32;;
19776;SDS011;10047;42.490;26.012;2023-02-03T16:06:21;11.40;;;7.70;;
19776;SDS011;10047;42.490;26.012;2023-02-03T16:08:47;10.55;;;6.32;;
19776;SDS011;10047;42.490;26.012;2023-02-03T16:14:37;8.35;;;5.63;;
19776;SDS011;10047;42.490;26.012;2023-02-03T16:17:02;9.70;;;6.55;;
19776;SDS011;10047;42.490;26.012;2023-02-03T16:19:28;10.32;;;6.93;;
19776;SDS011;10047;42.490;26.012;2023-02-03T16:21:58;13.48;;;9.02;;
19776;SDS011;10047;42.490;26.012;2023-02-03T16:24:41;10.80;;;8.15;;
19776;SDS011;10047;42.490;26.012;2023-02-03T16:29:51;14.38;;;7.50;;
19776;SDS011;10047;42.490;26.012;2023-02-03T16:32:35;16.95;;;10.90;;
19776;SDS011;10047;42.490;26.012;2023-02-03T16:35:19;16.08;;;10.65;;
19776;SDS011;10047;42.490;26.012;2023-02-03T16:41:24;8.68;;;6.18;;
19776;SDS011;10047;42.490;26.012;2023-02-03T16:44:09;17.38;;;11.40;;
19776;SDS011;10047;42.490;26.012;2023-02-03T16:46:54;24.70;;;13.88;;
19776;SDS011;10047;42.490;26.012;2023-02-03T16:49:37;15.50;;;10.77;;
19776;SDS011;10047;42.490;26.012;2023-02-03T16:52:21;16.88;;;10.50;;
19776;SDS011;10047;42.490;26.012;2023-02-03T16:54:47;15.05;;;9.50;;
19776;SDS011;10047;42.490;26.012;2023-02-03T16:57:12;17.15;;;11.55;;
19776;SDS011;10047;42.490;26.012;2023-02-03T16:59:38;14.48;;;9.70;;
19776;SDS011;10047;42.490;26.012;2023-02-03T17:02:03;15.93;;;10.57;;
19776;SDS011;10047;42.490;26.012;2023-02-03T17:04:28;15.00;;;10.18;;
19776;SDS011;10047;42.490;26.012;2023-02-03T17:06:54;18.17;;;12.25;;
19776;SDS011;10047;42.490;26.012;2023-02-03T17:09:19;19.45;;;11.55;;
19776;SDS011;10047;42.490;26.012;2023-02-03T17:11:47;20.13;;;11.52;;
19776;SDS011;10047;42.490;26.012;2023-02-03T17:14:13;15.07;;;11.07;;
19776;SDS011;10047;42.490;26.012;2023-02-03T17:16:38;21.35;;;14.02;;
19776;SDS011;10047;42.490;26.012;2023-02-03T17:19:04;18.40;;;12.43;;
19776;SDS011;10047;42.490;26.012;2023-02-03T17:21:29;21.38;;;12.35;;
19776;SDS011;10047;42.490;26.012;2023-02-03T17:23:58;31.25;;;20.83;;
19776;SDS011;10047;42.490;26.012;2023-02-03T17:26:24;34.50;;;18.17;;
19776;SDS011;10047;42.490;26.012;2023-02-03T17:28:49;50.83;;;30.20;;
19776;SDS011;10047;42.490;26.012;2023-02-03T17:31:16;45.38;;;28.60;;
19776;SDS011;10047;42.490;26.012;2023-02-03T17:33:43;34.88;;;22.05;;
19776;SDS011;10047;42.490;26.012;2023-02-03T17:36:10;47.40;;;28.75;;
19776;SDS011;10047;42.490;26.012;2023-02-03T17:38:40;35.88;;;22.95;;
19776;SDS011;10047;42.490;26.012;2023-02-03T17:41:15;35.75;;;24.17;;
19776;SDS011;10047;42.490;26.012;2023-02-03T17:43:42;51.75;;;32.63;;
19776;SDS011;10047;42.490;26.012;2023-02-03T17:46:09;58.08;;;35.88;;
19776;SDS011;10047;42.490;26.012;2023-02-03T17:48:37;59.10;;;38.33;;
19776;SDS011;10047;42.490;26.012;2023-02-03T17:51:09;64.80;;;44.28;;
19776;SDS011;10047;42.490;26.012;2023-02-03T17:53:40;62.25;;;42.63;;
19776;SDS011;10047;42.490;26.012;2023-02-03T17:56:11;54.30;;;38.00;;
19776;SDS011;10047;42.490;26.012;2023-02-03T18:02:02;64.60;;;32.80;;
19776;SDS011;10047;42.490;26.012;2023-02-03T18:04:28;103.22;;;49.10;;
19776;SDS011;10047;42.490;26.012;2023-02-03T18:06:53;65.05;;;37.80;;
19776;SDS011;10047;42.490;26.012;2023-02-03T18:09:19;60.75;;;35.28;;
19776;SDS011;10047;42.490;26.012;2023-02-03T18:11:44;57.15;;;31.40;;
19776;SDS011;10047;42.490;26.012;2023-02-03T18:14:13;42.72;;;28.17;;
19776;SDS011;10047;42.490;26.012;2023-02-03T18:20:01;28.90;;;20.77;;
19776;SDS011;10047;42.490;26.012;2023-02-03T18:22:28;51.85;;;32.90;;
19776;SDS011;10047;42.490;26.012;2023-02-03T18:28:15;63.47;;;40.63;;
19776;SDS011;10047;42.490;26.012;2023-02-03T18:30:40;70.40;;;44.80;;
19776;SDS011;10047;42.490;26.012;2023-02-03T18:33:05;71.00;;;43.65;;
19776;SDS011;10047;42.490;26.012;2023-02-03T18:35:31;78.63;;;46.90;;
19776;SDS011;10047;42.490;26.012;2023-02-03T18:37:57;73.53;;;45.95;;
19776;SDS011;10047;42.490;26.012;2023-02-03T18:40:22;78.40;;;49.45;;
19776;SDS011;10047;42.490;26.012;2023-02-03T18:46:17;67.63;;;36.97;;
19776;SDS011;10047;42.490;26.012;2023-02-03T18:48:44;25.98;;;17.35;;
19776;SDS011;10047;42.490;26.012;2023-02-03T18:51:11;58.88;;;32.05;;
19776;SDS011;10047;42.490;26.012;2023-02-03T18:53:39;48.22;;;31.10;;
19776;SDS011;10047;42.490;26.012;2023-02-03T18:56:05;22.85;;;15.55;;
19776;SDS011;10047;42.490;26.012;2023-02-03T18:58:32;21.33;;;14.50;;